Time;durP1;ratioP1;P1;durP2;ratioP2;P2;SDS_P1;SDS_P2;PMS_P1;PMS_P2;Temp;Humidity;BMP_temperature;BMP_pressure;BME280_temperature;BME280_humidity;BME280_pressure;Samples;Min_cycle;Max_cycle;Signal;HPM_P1;HPM_P2
2022/02/03 00:01:12;;;;;;;2.80;2.70;;;-2.70;98.80;;;;;;6312216;28;20294;-76
2022/02/03 00:04:21;;;;;;;2.67;2.57;;;-2.70;98.70;;;;;;6312140;28;20296;-76
2022/02/03 00:07:35;;;;;;;2.83;2.70;;;-2.70;98.70;;;;;;6311912;28;20280;-76
2022/02/03 00:10:59;;;;;;;2.80;2.70;;;-2.70;98.80;;;;;;6312439;28;20294;-76
2022/02/03 00:24:20;;;;;;;2.70;2.60;;;-2.60;99.60;;;;;;6311774;28;20307;-76
2022/02/03 00:27:49;;;;;;;2.30;2.20;;;-2.50;99.80;;;;;;6311849;28;20277;-76
2022/02/03 00:31:05;;;;;;;2.90;2.80;;;-2.50;99.80;;;;;;6311367;28;20291;-76
2022/02/03 00:34:17;;;;;;;3.10;3.00;;;-2.50;99.90;;;;;;6311283;28;20296;-76
2022/02/03 00:37:56;;;;;;;3.17;2.97;;;-2.50;99.90;;;;;;6311759;28;20273;-76
2022/02/03 00:51:13;;;;;;;4.13;3.67;;;-2.50;99.90;;;;;;6310892;28;20276;-76
2022/02/03 00:54:23;;;;;;;3.87;3.57;;;-2.50;99.90;;;;;;6311429;28;20312;-76
2022/02/03 00:57:34;;;;;;;3.87;3.57;;;-2.50;99.90;;;;;;6293099;28;20290;-76
2022/02/03 01:00:41;;;;;;;3.07;2.97;;;-2.40;99.90;;;;;;6311251;28;20454;-77
2022/02/03 01:03:52;;;;;;;4.07;3.70;;;-2.40;99.90;;;;;;6311020;28;20304;-76
2022/02/03 01:06:59;;;;;;;4.20;3.40;;;-2.40;99.90;;;;;;6311498;28;20272;-76
2022/02/03 01:10:12;;;;;;;5.60;3.00;;;-2.40;99.90;;;;;;6310623;28;20293;-76
2022/02/03 01:13:33;;;;;;;4.37;3.33;;;-2.50;99.90;;;;;;6310284;28;20292;-77
2022/02/03 01:16:56;;;;;;;3.73;3.53;;;-2.40;99.90;;;;;;6310476;28;20288;-76
2022/02/03 01:20:40;;;;;;;4.40;4.10;;;-2.50;99.90;;;;;;6314682;28;20483;-76
2022/02/03 01:34:33;;;;;;;3.90;3.70;;;-2.50;99.90;;;;;;6297914;28;20288;-77
2022/02/03 01:37:51;;;;;;;6.33;4.20;;;-2.40;99.90;;;;;;6316473;28;20311;-76
2022/02/03 01:44:26;;;;;;;4.00;3.60;;;-2.50;99.90;;;;;;6305278;28;20581;-77
2022/02/03 01:47:49;;;;;;;5.37;3.60;;;-2.50;99.90;;;;;;6290263;28;20279;-76
2022/02/03 01:54:28;;;;;;;3.67;3.47;;;-2.40;99.90;;;;;;6289814;28;20300;-77
2022/02/03 01:57:42;;;;;;;3.97;3.63;;;-2.40;99.90;;;;;;6290182;28;20288;-77
2022/02/03 02:00:59;;;;;;;5.73;4.13;;;-2.40;99.90;;;;;;6290058;28;20296;-76
2022/02/03 02:04:11;;;;;;;5.40;4.03;;;-2.40;99.90;;;;;;6289433;28;20573;-76
2022/02/03 02:07:28;;;;;;;3.53;3.30;;;-2.40;99.90;;;;;;6290411;28;20277;-76
2022/02/03 02:11:06;;;;;;;3.53;3.33;;;-2.40;99.90;;;;;;6289982;28;20298;-76
2022/02/03 02:14:49;;;;;;;3.50;3.20;;;-2.40;99.90;;;;;;6289440;28;20301;-76
2022/02/03 02:18:16;;;;;;;3.60;3.37;;;-2.40;99.90;;;;;;6289540;28;20293;-76
2022/02/03 02:38:54;;;;;;;3.20;3.03;;;-2.30;99.90;;;;;;6288424;28;20297;-77
2022/02/03 02:42:32;;;;;;;4.03;3.23;;;-2.30;99.90;;;;;;6289815;28;20577;-76
2022/02/03 02:45:48;;;;;;;3.60;3.50;;;-2.20;99.90;;;;;;6288744;28;20301;-76
2022/02/03 02:49:14;;;;;;;4.23;3.23;;;-2.20;99.90;;;;;;6288365;28;20305;-77
2022/02/03 02:52:26;;;;;;;3.50;3.37;;;-2.20;99.90;;;;;;6289440;28;20273;-77
2022/02/03 02:55:47;;;;;;;4.20;3.93;;;-2.20;99.90;;;;;;6288537;28;20297;-77
2022/02/03 02:59:15;;;;;;;4.73;4.23;;;-2.20;99.90;;;;;;6288915;28;20476;-77
2022/02/03 03:02:57;;;;;;;4.83;4.43;;;-2.20;99.90;;;;;;6288851;28;20318;-76
2022/02/03 03:30:06;;;;;;;3.37;3.17;;;-2.20;99.90;;;;;;6312968;28;20294;-77
2022/02/03 03:33:23;;;;;;;3.53;3.30;;;-2.20;99.90;;;;;;6312439;28;20269;-77
2022/02/03 03:36:31;;;;;;;3.50;3.20;;;-2.20;99.90;;;;;;6288455;28;20270;-76
2022/02/03 03:39:45;;;;;;;3.43;3.23;;;-2.20;99.90;;;;;;6288282;28;20462;-77
2022/02/03 03:42:55;;;;;;;3.50;3.37;;;-2.20;99.90;;;;;;6286600;28;20475;-76
2022/02/03 03:46:07;;;;;;;3.37;3.27;;;-2.20;99.90;;;;;;6287978;28;20299;-77
2022/02/03 03:49:24;;;;;;;5.37;3.47;;;-2.20;99.90;;;;;;6287357;28;20321;-77
2022/02/03 03:52:38;;;;;;;4.50;3.47;;;-2.10;99.90;;;;;;6288101;28;20273;-77
2022/02/03 03:55:52;;;;;;;3.40;3.20;;;-2.20;99.90;;;;;;6287517;28;20298;-76
2022/02/03 03:59:25;;;;;;;3.30;3.20;;;-2.10;99.90;;;;;;6286741;28;20389;-77
2022/02/03 04:31:13;;;;;;;3.27;3.10;;;-2.00;99.90;;;;;;6311338;28;20268;-77
2022/02/03 04:34:58;;;;;;;3.57;3.30;;;-2.00;99.90;;;;;;6293136;28;20339;-77
2022/02/03 04:38:20;;;;;;;3.43;3.10;;;-2.00;99.90;;;;;;6301751;28;20337;-76
2022/02/03 04:45:50;;;;;;;3.17;3.03;;;-2.00;99.90;;;;;;6286155;28;20568;-76
2022/02/03 04:57:12;;;;;;;3.33;3.17;;;-1.90;99.90;;;;;;6286330;28;20569;-76
2022/02/03 05:04:11;;;;;;;3.70;3.40;;;-1.90;99.90;;;;;;6296152;28;20475;-76
2022/02/03 05:07:52;;;;;;;4.33;3.93;;;-1.90;99.90;;;;;;6310566;28;20230;-77
2022/02/03 05:11:44;;;;;;;5.10;3.80;;;-1.80;99.90;;;;;;6310778;28;20273;-76
2022/02/03 05:15:27;;;;;;;4.00;3.70;;;-1.80;99.90;;;;;;6286471;28;20296;-77
2022/02/03 05:19:09;;;;;;;3.50;3.30;;;-1.80;99.90;;;;;;6285164;28;20509;-77
2022/02/03 05:26:23;;;;;;;4.07;3.77;;;-1.80;99.90;;;;;;6285820;28;20275;-77
2022/02/03 05:45:22;;;;;;;4.30;4.00;;;-1.80;99.90;;;;;;6215962;28;20300;-77
2022/02/03 05:52:15;;;;;;;4.23;3.63;;;-1.70;99.90;;;;;;6308866;28;20272;-77
2022/02/03 06:05:56;;;;;;;4.53;4.13;;;-1.70;99.90;;;;;;6299574;28;20279;-76
2022/02/03 06:09:17;;;;;;;5.17;4.20;;;-1.60;99.90;;;;;;6296321;28;20493;-77
2022/02/03 06:12:45;;;;;;;4.30;4.00;;;-1.60;99.90;;;;;;6289690;28;20301;-77
2022/02/03 06:16:05;;;;;;;4.63;4.10;;;-1.60;99.90;;;;;;6290704;28;20270;-76
2022/02/03 06:22:43;;;;;;;4.33;4.03;;;-1.60;99.90;;;;;;6289392;28;20294;-76
2022/02/03 06:29:14;;;;;;;4.03;3.83;;;-1.70;99.90;;;;;;6288924;28;20305;-77
2022/02/03 06:32:19;;;;;;;4.20;3.80;;;-1.60;99.90;;;;;;6288809;28;20334;-75
2022/02/03 06:35:25;;;;;;;4.03;3.73;;;-1.60;99.90;;;;;;6289940;28;20362;-75
2022/02/03 06:38:33;;;;;;;4.40;4.00;;;-1.60;99.90;;;;;;6288524;28;20300;-75
2022/02/03 06:41:38;;;;;;;4.40;4.00;;;-1.70;99.90;;;;;;6289559;28;20275;-74
2022/02/03 06:44:49;;;;;;;4.80;3.60;;;-1.60;99.90;;;;;;6289220;28;20297;-74
2022/02/03 06:47:59;;;;;;;3.83;3.60;;;-1.60;99.90;;;;;;6288174;28;20302;-75
2022/02/03 06:51:10;;;;;;;4.27;3.97;;;-1.60;99.90;;;;;;6289346;28;20298;-75
2022/02/03 06:54:24;;;;;;;5.13;4.63;;;-1.50;99.90;;;;;;6288923;28;20297;-75
2022/02/03 06:57:36;;;;;;;5.40;3.87;;;-1.50;99.90;;;;;;6288119;28;20301;-76
2022/02/03 07:00:45;;;;;;;4.13;3.83;;;-1.60;99.90;;;;;;6288448;28;20459;-76
2022/02/03 07:03:55;;;;;;;4.10;3.80;;;-1.50;99.90;;;;;;6287631;28;20471;-75
2022/02/03 07:07:02;;;;;;;4.70;4.40;;;-1.60;99.90;;;;;;6288052;28;20382;-76
2022/02/03 07:10:11;;;;;;;4.27;3.97;;;-1.50;99.90;;;;;;6288240;28;20282;-76
2022/02/03 07:13:18;;;;;;;3.87;3.60;;;-1.50;99.90;;;;;;6288635;28;20298;-76
2022/02/03 07:16:23;;;;;;;4.17;3.93;;;-1.50;99.90;;;;;;6288746;28;20274;-76
2022/02/03 07:19:28;;;;;;;4.47;3.83;;;-1.50;99.90;;;;;;6287511;28;20318;-76
2022/02/03 07:22:33;;;;;;;3.63;3.43;;;-1.50;99.90;;;;;;6287915;28;20298;-76
2022/02/03 07:25:40;;;;;;;4.17;3.97;;;-1.50;99.90;;;;;;6287975;28;20270;-75
2022/02/03 07:28:45;;;;;;;4.30;4.00;;;-1.50;99.90;;;;;;6288332;28;20321;-76
2022/02/03 07:31:51;;;;;;;4.30;4.00;;;-1.50;99.90;;;;;;6287933;28;20573;-76
2022/02/03 07:34:57;;;;;;;4.20;3.90;;;-1.40;99.90;;;;;;6287712;28;20281;-76
2022/02/03 07:38:07;;;;;;;4.50;4.10;;;-1.50;99.90;;;;;;6287083;28;20302;-76
2022/02/03 07:41:14;;;;;;;4.50;4.20;;;-1.40;99.90;;;;;;6287521;28;20482;-76
2022/02/03 07:44:19;;;;;;;4.77;4.40;;;-1.50;99.90;;;;;;6288049;28;20297;-76
2022/02/03 07:47:25;;;;;;;5.90;5.07;;;-1.50;99.90;;;;;;6288155;28;20588;-76
2022/02/03 07:50:30;;;;;;;5.10;4.63;;;-1.50;99.90;;;;;;6288709;28;20278;-75
2022/02/03 07:53:36;;;;;;;4.70;4.30;;;-1.40;99.90;;;;;;6285760;28;20486;-75
2022/02/03 07:56:42;;;;;;;4.80;4.50;;;-1.50;99.90;;;;;;6288298;28;20270;-75
2022/02/03 07:59:48;;;;;;;4.87;4.47;;;-1.50;99.90;;;;;;6287003;28;20484;-75
2022/02/03 08:02:53;;;;;;;7.53;4.23;;;-1.50;99.90;;;;;;6286739;28;20443;-75
2022/02/03 08:06:02;;;;;;;4.50;4.10;;;-1.50;99.90;;;;;;6288161;28;20522;-75
2022/02/03 08:09:12;;;;;;;5.13;4.70;;;-1.50;99.90;;;;;;6286901;28;20604;-76
2022/02/03 08:12:22;;;;;;;4.67;4.27;;;-1.50;99.90;;;;;;6286328;28;20298;-75
2022/02/03 08:15:29;;;;;;;4.27;3.97;;;-1.50;99.90;;;;;;6288182;28;20569;-75
2022/02/03 08:18:35;;;;;;;4.60;4.20;;;-1.50;99.90;;;;;;6286924;28;20310;-75
2022/02/03 08:21:45;;;;;;;4.43;4.03;;;-1.50;99.90;;;;;;6287337;28;20294;-75
2022/02/03 08:25:03;;;;;;;6.67;4.73;;;-1.50;99.90;;;;;;6286873;28;20469;-76
2022/02/03 08:31:41;;;;;;;4.50;4.20;;;-1.40;99.90;;;;;;6286479;28;20279;-74
2022/02/03 08:35:08;;;;;;;5.70;4.43;;;-1.40;99.90;;;;;;6287294;28;20298;-75
2022/02/03 08:38:20;;;;;;;4.27;4.07;;;-1.40;99.90;;;;;;6286689;28;20299;-74
2022/02/03 08:41:26;;;;;;;5.23;4.43;;;-1.40;99.90;;;;;;6286511;28;20293;-75
2022/02/03 08:44:32;;;;;;;5.23;4.70;;;-1.40;99.90;;;;;;6286137;28;20299;-75
2022/02/03 08:47:38;;;;;;;4.53;4.23;;;-1.40;99.90;;;;;;6286405;28;20298;-75
2022/02/03 08:50:43;;;;;;;5.17;4.67;;;-1.40;99.90;;;;;;6287006;28;20279;-75
2022/02/03 08:53:52;;;;;;;4.90;4.50;;;-1.40;99.90;;;;;;6285982;28;20475;-75
2022/02/03 08:57:06;;;;;;;4.70;4.40;;;-1.40;99.90;;;;;;6286881;28;20274;-76
2022/02/03 09:38:23;;;;;;;11.20;4.47;;;-1.20;99.40;;;;;;6211863;28;20659;-75
2022/02/03 09:41:59;;;;;;;6.47;4.60;;;-1.10;99.50;;;;;;6290755;28;20293;-74
2022/02/03 09:52:29;;;;;;;4.97;4.57;;;-1.20;99.70;;;;;;6291518;28;20278;-75
2022/02/03 09:55:57;;;;;;;5.50;4.83;;;-1.10;99.70;;;;;;6289319;28;20515;-75
2022/02/03 09:59:09;;;;;;;4.73;4.43;;;-1.10;99.30;;;;;;6290637;28;20298;-74
2022/02/03 10:02:21;;;;;;;4.93;4.30;;;-1.10;98.90;;;;;;6289873;28;20310;-75
2022/02/03 10:05:34;;;;;;;4.87;4.47;;;-1.10;98.60;;;;;;6290597;28;20274;-74
2022/02/03 10:08:49;;;;;;;5.40;5.00;;;-1.10;98.70;;;;;;6289826;28;20486;-74
2022/02/03 10:12:00;;;;;;;5.93;4.73;;;-1.10;98.90;;;;;;6290503;28;20267;-76
2022/02/03 10:15:08;;;;;;;5.47;5.07;;;-1.10;99.10;;;;;;6290777;28;20274;-75
2022/02/03 10:18:25;;;;;;;6.00;5.40;;;-1.00;99.10;;;;;;6290210;28;20298;-75
2022/02/03 10:21:31;;;;;;;5.57;5.13;;;-1.00;98.90;;;;;;6289398;28;20289;-75
2022/02/03 10:24:38;;;;;;;5.70;5.30;;;-1.00;99.10;;;;;;6287406;28;20294;-75
2022/02/03 10:27:50;;;;;;;5.40;4.90;;;-1.00;99.00;;;;;;6288903;28;20299;-75
2022/02/03 10:31:03;;;;;;;4.93;4.40;;;-1.00;99.00;;;;;;6290735;28;20270;-75
2022/02/03 10:34:14;;;;;;;5.87;4.27;;;-1.00;98.70;;;;;;6289606;28;20298;-75
2022/02/03 10:37:40;;;;;;;5.33;4.00;;;-1.00;98.50;;;;;;6289748;28;20471;-76
2022/02/03 10:41:15;;;;;;;4.33;4.00;;;-1.00;98.50;;;;;;6289811;28;20272;-75
2022/02/03 10:45:04;;;;;;;3.93;3.73;;;-0.90;98.90;;;;;;6289289;28;20464;-76
2022/02/03 10:48:48;;;;;;;4.60;4.10;;;-1.00;98.40;;;;;;6288920;28;20321;-75
2022/02/03 10:55:44;;;;;;;4.30;4.00;;;-0.90;98.40;;;;;;6284907;28;20282;-75
2022/02/03 10:59:31;;;;;;;4.30;4.00;;;-0.90;97.90;;;;;;6288857;28;20307;-75
2022/02/03 11:02:47;;;;;;;3.97;3.77;;;-0.90;98.00;;;;;;6288347;28;20294;-75
2022/02/03 11:06:07;;;;;;;5.17;4.37;;;-1.00;98.20;;;;;;6288896;28;20274;-75
2022/02/03 11:09:18;;;;;;;4.50;4.00;;;-0.90;98.10;;;;;;6288505;28;20299;-75
2022/02/03 11:12:24;;;;;;;3.77;3.57;;;-0.90;98.20;;;;;;6288455;28;20300;-75
2022/02/03 11:15:33;;;;;;;4.70;4.03;;;-0.90;98.00;;;;;;6288514;28;20278;-75
2022/02/03 11:18:41;;;;;;;4.83;4.43;;;-0.90;98.30;;;;;;6288200;28;20297;-75
2022/02/03 11:21:52;;;;;;;4.57;4.27;;;-0.90;98.10;;;;;;6288845;28;20269;-76
2022/02/03 11:25:11;;;;;;;4.53;4.20;;;-0.90;97.90;;;;;;6287994;28;20590;-76
2022/02/03 11:28:37;;;;;;;6.03;5.10;;;-1.00;97.70;;;;;;6288203;28;20302;-77
2022/02/03 11:53:34;;;;;;;5.20;4.77;;;-1.00;97.80;;;;;;6287793;28;20473;-76
2022/02/03 12:04:22;;;;;;;5.10;4.53;;;-1.10;97.60;;;;;;6376836;27;20796;-76
2022/02/03 12:11:13;;;;;;;4.30;4.00;;;-1.10;97.40;;;;;;6297486;28;20276;-76
2022/02/03 12:17:56;;;;;;;3.80;3.50;;;-1.00;97.70;;;;;;6307486;28;20607;-77
2022/02/03 12:21:15;;;;;;;3.70;3.47;;;-1.10;97.60;;;;;;6332909;28;20269;-75
2022/02/03 12:24:32;;;;;;;3.80;3.60;;;-1.10;98.00;;;;;;6332925;28;20292;-74
2022/02/03 12:27:53;;;;;;;4.40;4.10;;;-1.20;98.30;;;;;;6332785;28;20296;-75
2022/02/03 12:38:23;;;;;;;3.27;3.17;;;-1.20;98.20;;;;;;6332673;28;20612;-75
2022/02/03 12:41:36;;;;;;;3.37;3.23;;;-1.10;97.90;;;;;;6332585;28;20294;-74
2022/02/03 12:44:45;;;;;;;2.87;2.77;;;-1.10;98.10;;;;;;6332856;28;20296;-76
2022/02/03 12:47:54;;;;;;;3.17;2.97;;;-1.10;98.10;;;;;;6331791;28;20396;-74
2022/02/03 12:51:00;;;;;;;3.70;3.40;;;-1.10;98.00;;;;;;6331937;28;20453;-75
2022/02/03 12:54:15;;;;;;;3.93;3.17;;;-1.10;97.90;;;;;;6331975;28;20293;-75
2022/02/03 12:57:29;;;;;;;3.20;2.97;;;-1.10;98.20;;;;;;6331260;28;20475;-75
2022/02/03 13:00:43;;;;;;;2.87;2.77;;;-1.00;97.80;;;;;;6332065;28;20273;-75
2022/02/03 13:04:02;;;;;;;3.17;3.03;;;-1.00;97.30;;;;;;6281724;28;20294;-74
2022/02/03 13:07:10;;;;;;;7.87;3.17;;;-1.00;97.40;;;;;;6281096;28;20294;-75
2022/02/03 13:10:23;;;;;;;3.40;2.67;;;-0.90;97.70;;;;;;6281670;28;20277;-75
2022/02/03 13:13:41;;;;;;;2.97;2.77;;;-0.90;97.40;;;;;;6273521;28;20479;-75
2022/02/03 13:16:51;;;;;;;3.33;3.23;;;-1.00;97.30;;;;;;6264876;28;20275;-74
2022/02/03 13:20:09;;;;;;;3.10;2.90;;;-1.00;97.70;;;;;;6263418;28;20282;-74
2022/02/03 13:23:21;;;;;;;4.90;4.57;;;-0.90;97.60;;;;;;6264539;28;20306;-74
2022/02/03 13:26:34;;;;;;;5.30;3.93;;;-1.00;97.70;;;;;;6264469;28;20535;-75
2022/02/03 13:29:50;;;;;;;3.10;3.00;;;-1.00;98.00;;;;;;6279659;28;20296;-74
2022/02/03 13:33:00;;;;;;;3.30;3.20;;;-1.00;98.10;;;;;;6264562;28;20304;-75
2022/02/03 13:36:11;;;;;;;3.33;3.23;;;-1.00;98.00;;;;;;6264529;28;20275;-77
2022/02/03 13:39:25;;;;;;;2.90;2.80;;;-1.10;98.40;;;;;;6264032;28;20304;-75
2022/02/03 13:42:32;;;;;;;3.17;3.00;;;-1.10;98.30;;;;;;6264199;28;20299;-76
2022/02/03 13:45:41;;;;;;;3.40;3.30;;;-1.20;98.20;;;;;;6264495;28;20298;-75
2022/02/03 13:48:52;;;;;;;3.00;2.90;;;-1.20;98.50;;;;;;6263423;28;20297;-76
2022/02/03 13:51:59;;;;;;;3.30;3.20;;;-1.20;98.30;;;;;;6263068;28;20275;-76
2022/02/03 14:23:12;;;;;;;3.17;3.00;;;-1.30;98.80;;;;;;6285846;28;20483;-75
2022/02/03 14:29:45;;;;;;;3.50;3.30;;;-1.40;99.10;;;;;;6288423;28;20623;-75
2022/02/03 14:32:56;;;;;;;3.20;3.03;;;-1.30;99.10;;;;;;6287029;28;20295;-75
2022/02/03 14:36:06;;;;;;;3.53;3.33;;;-1.30;99.20;;;;;;6288300;28;20270;-76
2022/02/03 14:39:18;;;;;;;3.30;3.20;;;-1.50;99.00;;;;;;6287339;28;20300;-76
2022/02/03 14:42:23;;;;;;;3.27;3.10;;;-1.50;99.30;;;;;;6287140;28;20597;-76
2022/02/03 14:45:28;;;;;;;3.17;2.97;;;-1.50;99.40;;;;;;6287255;28;20295;-76
2022/02/03 14:48:36;;;;;;;3.10;3.00;;;-1.60;99.40;;;;;;6287636;28;20311;-75
2022/02/03 14:51:51;;;;;;;3.07;2.97;;;-1.70;99.60;;;;;;6287968;28;20302;-76
2022/02/03 14:58:24;;;;;;;3.20;3.10;;;-1.70;99.90;;;;;;6286991;28;20693;-76
2022/02/03 15:01:31;;;;;;;3.17;3.07;;;-1.70;99.80;;;;;;6287427;28;20477;-76
2022/02/03 15:04:41;;;;;;;3.10;3.00;;;-1.70;99.90;;;;;;6286336;28;20306;-76
2022/02/03 15:07:46;;;;;;;3.37;3.17;;;-1.70;99.90;;;;;;6287186;28;20617;-76
2022/02/03 15:11:03;;;;;;;3.07;2.97;;;-1.70;99.90;;;;;;6287414;28;20270;-76
2022/02/03 15:14:08;;;;;;;2.90;2.80;;;-1.70;99.90;;;;;;6286803;28;20345;-76
2022/02/03 15:17:13;;;;;;;2.97;2.87;;;-1.70;99.90;;;;;;6286144;28;20298;-76
2022/02/03 15:20:30;;;;;;;2.77;2.53;;;-1.70;99.90;;;;;;6287630;28;20548;-76
2022/02/03 15:23:35;;;;;;;3.37;3.17;;;-1.80;99.90;;;;;;6285999;28;20301;-76
2022/02/03 15:26:41;;;;;;;2.77;2.67;;;-1.80;99.90;;;;;;6286099;28;20277;-76
2022/02/03 15:29:48;;;;;;;3.53;3.33;;;-1.80;99.90;;;;;;6287217;28;20277;-76
2022/02/03 15:32:54;;;;;;;2.70;2.60;;;-1.70;99.90;;;;;;6286598;28;20307;-75
2022/02/03 15:36:04;;;;;;;3.23;2.77;;;-1.70;99.90;;;;;;6286618;28;20461;-75
2022/02/03 15:39:12;;;;;;;3.03;2.90;;;-1.70;99.90;;;;;;6286380;28;20301;-77
2022/02/03 15:42:26;;;;;;;2.90;2.80;;;-1.70;99.90;;;;;;6285732;28;20297;-76
2022/02/03 15:45:36;;;;;;;3.40;3.20;;;-1.70;99.90;;;;;;6286836;28;20287;-76
2022/02/03 15:48:47;;;;;;;2.53;2.40;;;-1.70;99.90;;;;;;6286768;28;20461;-77
2022/02/03 16:19:26;;;;;;;2.57;2.57;;;-1.60;99.90;;;;;;6286490;28;20296;-75
2022/02/03 16:22:43;;;;;;;2.80;2.60;;;-1.60;99.90;;;;;;6285287;28;20305;-75
2022/02/03 16:53:01;;;;;;;2.60;2.40;;;-1.50;99.90;;;;;;6290139;28;20298;-74
2022/02/03 16:56:09;;;;;;;2.40;2.40;;;-1.50;99.90;;;;;;6290645;28;20278;-75
2022/02/03 16:59:16;;;;;;;2.83;2.73;;;-1.50;99.90;;;;;;6289793;28;20297;-76
2022/02/03 17:02:23;;;;;;;2.53;2.43;;;-1.50;99.90;;;;;;6289765;28;20305;-75
2022/02/03 17:05:29;;;;;;;2.63;2.53;;;-1.50;99.90;;;;;;6289610;28;20298;-75
2022/02/03 17:08:35;;;;;;;2.47;2.40;;;-1.50;99.90;;;;;;6289627;28;20326;-75
2022/02/03 17:11:45;;;;;;;2.77;2.63;;;-1.50;99.90;;;;;;6289563;28;20279;-76
2022/02/03 17:14:52;;;;;;;2.77;2.57;;;-1.50;99.90;;;;;;6289757;28;20277;-80
2022/02/03 17:17:58;;;;;;;2.90;2.80;;;-1.50;99.90;;;;;;6289248;28;20303;-76
2022/02/03 17:21:04;;;;;;;2.57;2.47;;;-1.40;99.90;;;;;;6289959;28;20274;-76
2022/02/03 17:24:10;;;;;;;3.17;2.77;;;-1.50;99.90;;;;;;6289478;28;20302;-76
2022/02/03 17:27:24;;;;;;;2.90;2.80;;;-1.40;99.90;;;;;;6289713;28;20302;-76
2022/02/03 17:30:35;;;;;;;2.70;2.60;;;-1.40;99.90;;;;;;6289933;28;20278;-76
2022/02/03 18:19:25;;;;;;;3.50;3.20;;;-1.40;99.90;;;;;;6314009;28;20314;-76
2022/02/03 18:26:02;;;;;;;3.53;3.13;;;-1.40;99.90;;;;;;6312165;28;20290;-76
2022/02/03 18:36:05;;;;;;;2.73;2.50;;;-1.20;99.90;;;;;;6313914;28;20278;-76
2022/02/03 18:49:53;;;;;;;2.60;2.50;;;-1.00;99.90;;;;;;6312831;28;20297;-76
2022/02/03 18:53:08;;;;;;;2.90;2.80;;;-0.90;99.90;;;;;;6312436;28;20290;-77
2022/02/03 18:56:26;;;;;;;2.50;2.40;;;-0.90;99.90;;;;;;6313023;28;20277;-78
2022/02/03 19:10:25;;;;;;;2.57;2.47;;;-0.70;99.90;;;;;;6312481;28;20302;-75
2022/02/03 20:04:33;;;;;;;2.13;2.03;;;-0.20;99.90;;;;;;6300377;28;20295;-78
2022/02/03 20:07:48;;;;;;;1.80;1.80;;;-0.20;99.90;;;;;;6313124;28;20298;-79
2022/02/03 20:10:54;;;;;;;2.20;1.83;;;-0.10;99.90;;;;;;6316351;28;20318;-79
2022/02/03 20:13:59;;;;;;;2.17;1.80;;;-0.10;99.90;;;;;;6314022;28;20329;-78
2022/02/03 20:17:04;;;;;;;1.70;1.70;;;-0.10;99.90;;;;;;6312979;28;20278;-78
2022/02/03 20:20:13;;;;;;;1.60;1.60;;;-0.10;99.90;;;;;;6313884;28;20267;-77
2022/02/03 20:23:21;;;;;;;1.50;1.50;;;0.00;99.90;;;;;;6313144;28;20295;-77
2022/02/03 20:26:26;;;;;;;1.70;1.70;;;0.00;99.90;;;;;;6316666;28;20270;-76
2022/02/03 20:29:31;;;;;;;1.60;1.60;;;0.10;99.90;;;;;;6315598;28;20299;-77
2022/02/03 20:32:38;;;;;;;1.60;1.60;;;0.10;99.90;;;;;;6316310;28;20452;-77
2022/02/03 20:35:44;;;;;;;2.27;1.67;;;0.10;99.90;;;;;;6315808;28;20526;-76
2022/02/03 20:38:51;;;;;;;1.53;1.43;;;0.20;99.90;;;;;;6347643;28;20329;-77
2022/02/03 20:41:56;;;;;;;1.60;1.50;;;0.20;99.90;;;;;;6316195;28;20273;-76
2022/02/03 20:45:01;;;;;;;1.80;1.40;;;0.20;99.90;;;;;;6314165;28;20558;-76
2022/02/03 20:48:07;;;;;;;1.50;1.50;;;0.30;99.90;;;;;;6315123;28;20302;-76
2022/02/03 20:51:16;;;;;;;1.53;1.50;;;0.30;99.90;;;;;;6315939;28;20276;-76
2022/02/03 20:54:21;;;;;;;1.40;1.40;;;0.30;99.90;;;;;;6315303;28;20312;-76
2022/02/03 20:57:27;;;;;;;1.50;1.47;;;0.30;99.90;;;;;;6315204;28;20298;-76
2022/02/03 21:00:41;;;;;;;1.70;1.70;;;0.40;99.90;;;;;;6316165;28;20449;-76
2022/02/03 21:03:48;;;;;;;2.50;1.90;;;0.40;99.90;;;;;;6314361;28;20299;-76
2022/02/03 21:06:54;;;;;;;1.60;1.50;;;0.40;99.90;;;;;;6314814;28;20268;-76
2022/02/03 21:10:02;;;;;;;1.50;1.37;;;0.40;99.90;;;;;;6315184;28;20620;-76
2022/02/03 21:13:07;;;;;;;1.47;1.40;;;0.40;99.90;;;;;;6314787;28;20301;-76
2022/02/03 21:16:15;;;;;;;2.93;1.40;;;0.50;99.90;;;;;;6315383;28;20289;-76
2022/02/03 21:19:22;;;;;;;3.27;1.40;;;0.50;99.90;;;;;;6314385;28;20304;-76
2022/02/03 21:22:29;;;;;;;1.70;1.60;;;0.50;99.90;;;;;;6314529;28;20292;-76
2022/02/03 21:25:38;;;;;;;1.70;1.60;;;0.50;99.90;;;;;;6315290;28;20277;-76
2022/02/03 21:28:47;;;;;;;1.70;1.60;;;0.60;99.90;;;;;;6314215;28;20472;-76
2022/02/03 21:31:52;;;;;;;1.60;1.50;;;0.60;99.90;;;;;;6315028;28;20269;-76
2022/02/03 21:34:57;;;;;;;1.97;1.87;;;0.60;99.90;;;;;;6314607;28;20296;-76
2022/02/03 21:38:04;;;;;;;2.60;1.57;;;0.60;99.90;;;;;;6314252;28;20435;-76
2022/02/03 21:41:11;;;;;;;1.40;1.40;;;0.60;99.90;;;;;;6315166;28;20269;-76
2022/02/03 21:44:16;;;;;;;1.57;1.47;;;0.60;99.90;;;;;;6314040;28;20296;-76
2022/02/03 21:47:22;;;;;;;1.70;1.60;;;0.70;99.90;;;;;;6313916;28;20297;-77
2022/02/03 21:50:32;;;;;;;1.40;1.30;;;0.70;99.90;;;;;;6313928;28;20584;-76
2022/02/03 21:53:39;;;;;;;2.13;1.67;;;0.70;99.90;;;;;;6313972;28;20299;-76
2022/02/03 21:56:45;;;;;;;2.27;1.63;;;0.70;99.90;;;;;;6313539;28;20268;-76
2022/02/03 21:59:50;;;;;;;1.80;1.70;;;0.70;99.90;;;;;;6314038;28;20315;-76
2022/02/03 22:02:55;;;;;;;2.67;1.87;;;0.70;99.90;;;;;;6313267;28;20295;-76
2022/02/03 22:06:02;;;;;;;1.67;1.67;;;0.80;99.90;;;;;;6313200;28;20286;-76
2022/02/03 22:09:08;;;;;;;2.30;1.80;;;0.80;99.90;;;;;;6314024;28;20308;-76
2022/02/03 22:12:13;;;;;;;3.00;1.90;;;0.80;99.90;;;;;;6313106;28;20278;-76
2022/02/03 22:15:20;;;;;;;3.00;1.70;;;0.80;99.90;;;;;;6314154;28;20273;-76
2022/02/03 22:18:25;;;;;;;3.37;1.80;;;0.80;99.90;;;;;;6313286;28;20299;-77
2022/02/03 22:21:39;;;;;;;3.07;1.80;;;0.90;99.90;;;;;;6313987;28;20269;-76
2022/02/03 22:25:05;;;;;;;3.07;1.83;;;0.90;99.90;;;;;;6313394;28;20576;-76
2022/02/03 22:28:31;;;;;;;2.00;1.80;;;0.90;99.90;;;;;;6312773;28;20438;-76
2022/02/03 22:38:41;;;;;;;2.50;1.60;;;1.00;99.90;;;;;;6312719;28;20574;-76
2022/02/03 22:45:46;;;;;;;1.60;1.30;;;1.00;99.90;;;;;;6234639;28;20461;-76
2022/02/03 22:48:50;;;;;;;1.67;1.40;;;1.10;99.90;;;;;;6241075;28;20571;-76
2022/02/03 22:51:55;;;;;;;1.57;1.40;;;1.10;99.90;;;;;;6312703;28;20273;-76
2022/02/03 22:55:01;;;;;;;1.30;1.30;;;1.10;99.90;;;;;;6312278;28;20282;-76
2022/02/03 22:58:27;;;;;;;1.33;1.33;;;1.10;99.90;;;;;;6311674;28;20305;-76
2022/02/03 23:01:33;;;;;;;1.50;1.50;;;1.10;99.90;;;;;;6312117;28;20458;-76
2022/02/03 23:04:40;;;;;;;1.20;1.20;;;1.10;99.90;;;;;;6312426;28;20297;-76
2022/02/03 23:08:04;;;;;;;1.40;1.30;;;1.20;99.90;;;;;;6311505;28;20297;-76
2022/02/03 23:11:27;;;;;;;1.40;1.30;;;1.20;99.90;;;;;;6311957;28;20293;-76
2022/02/03 23:15:15;;;;;;;1.20;1.20;;;1.20;99.90;;;;;;6312285;28;20296;-76
2022/02/03 23:18:23;;;;;;;1.00;1.00;;;1.20;99.90;;;;;;6311937;28;20467;-76
2022/02/03 23:21:43;;;;;;;1.70;1.20;;;1.20;99.90;;;;;;6311695;28;20271;-76
2022/02/03 23:24:51;;;;;;;1.10;1.10;;;1.30;99.90;;;;;;6311175;28;20298;-76
2022/02/03 23:28:09;;;;;;;3.40;1.20;;;1.30;99.90;;;;;;6311319;28;20329;-76
2022/02/03 23:31:16;;;;;;;1.00;1.00;;;1.30;99.90;;;;;;6311109;28;20304;-76
2022/02/03 23:34:22;;;;;;;1.57;1.30;;;1.40;99.90;;;;;;6311236;28;20297;-76
2022/02/03 23:37:30;;;;;;;1.10;1.00;;;1.40;99.90;;;;;;6311348;28;20297;-77
2022/02/03 23:44:14;;;;;;;1.30;1.30;;;1.50;99.90;;;;;;6310531;28;20297;-76
